Time;durP1;ratioP1;P1;durP2;ratioP2;P2;SDS_P1;SDS_P2;PMS_P1;PMS_P2;Temp;Humidity;BMP_temperature;BMP_pressure;BME280_temperature;BME280_humidity;BME280_pressure;Samples;Min_cycle;Max_cycle;Signal;HPM_P1;HPM_P2
2022/06/22 00:01:03;;;;;;;1.70;1.30;;;;;;;13.11;73.02;97422.72;6185415;28;20271;-90
2022/06/22 00:04:07;;;;;;;1.70;1.57;;;;;;;13.06;73.20;97424.13;6200824;28;20603;-90
2022/06/22 00:07:22;;;;;;;2.23;1.30;;;;;;;13.07;73.27;97423.16;6184819;28;20870;-90
2022/06/22 00:10:37;;;;;;;1.97;1.77;;;;;;;13.10;73.64;97428.97;6185062;28;20324;-91
2022/06/22 00:13:47;;;;;;;4.17;1.80;;;;;;;13.09;73.69;97423.81;6184261;28;20229;-90
2022/06/22 00:16:52;;;;;;;1.70;1.60;;;;;;;13.04;73.78;97431.38;6183976;28;20243;-90
2022/06/22 00:20:02;;;;;;;1.83;1.50;;;;;;;12.99;73.72;97423.03;6163345;28;20265;-91
2022/06/22 00:23:13;;;;;;;2.20;2.00;;;;;;;12.95;74.20;97417.19;6193355;28;20222;-91
2022/06/22 00:26:24;;;;;;;3.87;2.00;;;;;;;12.91;74.39;97416.63;6200079;28;20225;-90
2022/06/22 00:29:36;;;;;;;2.60;1.70;;;;;;;12.86;74.62;97416.25;6200192;28;20232;-90
2022/06/22 00:32:38;;;;;;;1.87;1.63;;;;;;;12.83;74.93;97413.88;6199804;28;20248;-90
2022/06/22 00:35:49;;;;;;;2.60;1.83;;;;;;;12.78;74.91;97420.56;6183632;28;20275;-91
2022/06/22 00:38:52;;;;;;;2.60;2.00;;;;;;;12.74;74.67;97408.63;6184197;28;20233;-90
2022/06/22 00:42:15;;;;;;;3.10;1.87;;;;;;;12.73;74.85;97405.13;6178123;28;20225;-90
2022/06/22 00:45:30;;;;;;;2.63;2.00;;;;;;;12.67;75.27;97402.22;6159921;28;20312;-90
2022/06/22 00:48:34;;;;;;;2.87;1.80;;;;;;;12.60;75.38;97401.94;6161017;28;20222;-90
2022/06/22 00:51:39;;;;;;;2.27;1.97;;;;;;;12.56;75.73;97395.28;6176379;28;20642;-90
2022/06/22 00:54:45;;;;;;;3.33;2.07;;;;;;;12.51;76.36;97401.00;6170397;28;20367;-90
2022/06/22 00:57:54;;;;;;;3.50;1.80;;;;;;;12.50;76.18;97412.53;6184412;28;20221;-90
2022/06/22 01:01:49;;;;;;;2.80;2.03;;;;;;;12.50;76.28;97404.59;6166105;28;20229;-90
2022/06/22 01:04:59;;;;;;;3.47;2.23;;;;;;;12.47;76.97;97404.06;6179929;28;20350;-90
2022/06/22 01:08:14;;;;;;;2.33;2.10;;;;;;;12.43;77.20;97406.16;6182619;28;20225;-90
2022/06/22 01:15:36;;;;;;;3.03;2.20;;;;;;;12.35;77.51;97408.69;6089393;29;20270;-90
2022/06/22 01:18:44;;;;;;;2.63;2.20;;;;;;;12.36;77.50;97414.81;6108954;28;20219;-90
2022/06/22 01:21:56;;;;;;;2.77;2.20;;;;;;;12.34;77.21;97409.66;6093365;29;20801;-90
2022/06/22 01:25:12;;;;;;;2.43;1.80;;;;;;;12.32;77.54;97424.00;6114269;29;20706;-91
2022/06/22 01:28:15;;;;;;;2.93;2.30;;;;;;;12.28;77.57;97423.44;6108843;29;20227;-90
2022/06/22 01:31:17;;;;;;;3.03;2.20;;;;;;;12.27;77.48;97420.94;6094111;29;20238;-90
2022/06/22 01:34:20;;;;;;;2.30;2.10;;;;;;;12.26;78.01;97420.09;6109255;29;20338;-91
2022/06/22 01:37:25;;;;;;;3.90;2.30;;;;;;;12.23;77.93;97414.25;6108829;29;20730;-90
2022/06/22 01:40:45;;;;;;;2.53;2.33;;;;;;;12.20;78.55;97433.88;6108637;29;20228;-91
2022/06/22 01:44:17;;;;;;;3.23;2.30;;;;;;;12.12;78.40;97423.16;6108889;29;20231;-90
2022/06/22 01:47:28;;;;;;;2.67;2.00;;;;;;;12.10;78.68;97435.69;6089282;29;20239;-90
2022/06/22 01:50:58;;;;;;;2.53;2.17;;;;;;;12.12;78.26;97439.88;6151774;28;20264;-91
2022/06/22 01:54:29;;;;;;;2.60;2.40;;;;;;;12.09;78.53;97447.22;6165765;28;20716;-90
2022/06/22 01:57:40;;;;;;;3.77;2.60;;;;;;;12.08;78.48;97459.63;6173436;28;20232;-90
2022/06/22 02:00:49;;;;;;;2.17;1.97;;;;;;;12.06;78.47;97460.75;6182596;28;20744;-90
2022/06/22 02:04:10;;;;;;;3.00;2.10;;;;;;;12.03;78.71;97461.03;6172467;28;20368;-90
2022/06/22 02:07:44;;;;;;;2.47;2.27;;;;;;;12.01;78.62;97457.69;6180661;28;20591;-90
2022/06/22 02:11:08;;;;;;;2.47;2.27;;;;;;;11.98;78.46;97460.63;6173488;28;20315;-90
2022/06/22 02:14:21;;;;;;;4.73;2.00;;;;;;;11.93;78.14;97462.81;6160260;28;20235;-90
2022/06/22 02:17:29;;;;;;;2.33;2.13;;;;;;;11.96;78.88;97467.84;6186344;28;20497;-90
2022/06/22 02:20:37;;;;;;;3.17;1.80;;;;;;;11.94;78.55;97475.91;6181524;28;20221;-91
2022/06/22 02:23:39;;;;;;;1.80;1.70;;;;;;;11.93;78.79;97473.41;6181321;28;20320;-90
2022/06/22 02:26:51;;;;;;;3.50;2.47;;;;;;;11.92;79.34;97472.56;6180619;28;20720;-91
2022/06/22 02:29:58;;;;;;;1.73;1.63;;;;;;;11.89;79.20;97466.69;6181861;28;20249;-90
2022/06/22 02:33:00;;;;;;;1.87;1.73;;;;;;;11.85;79.24;97467.97;6179819;28;20246;-90
2022/06/22 02:36:04;;;;;;;1.80;1.70;;;;;;;11.78;79.27;97465.84;6165018;28;20261;-91
2022/06/22 02:39:09;;;;;;;2.17;2.00;;;;;;;11.77;78.86;97458.91;6197879;28;20253;-90
2022/06/22 02:45:33;;;;;;;2.70;2.00;;;;;;;11.72;79.16;97454.94;6197165;28;20229;-90
2022/06/22 02:48:37;;;;;;;2.33;2.00;;;;;;;11.70;79.22;97462.19;6179611;28;20253;-91
2022/06/22 02:51:45;;;;;;;2.57;2.27;;;;;;;11.68;79.47;97453.56;6181245;28;20251;-90
2022/06/22 02:54:52;;;;;;;3.17;1.80;;;;;;;11.67;79.46;97449.25;6164060;28;20670;-91
2022/06/22 02:57:59;;;;;;;2.57;2.03;;;;;;;11.71;79.30;97450.63;6196252;28;20269;-90
2022/06/22 03:01:12;;;;;;;2.73;1.70;;;;;;;11.73;79.31;97443.41;6180652;28;20231;-91
2022/06/22 03:04:15;;;;;;;2.03;1.70;;;;;;;11.73;79.48;97444.25;6163558;28;20236;-91
2022/06/22 03:07:21;;;;;;;5.10;2.03;;;;;;;11.75;79.11;97436.22;6164289;28;20264;-90
2022/06/22 03:10:30;;;;;;;3.03;1.97;;;;;;;11.81;79.26;97420.63;6180362;28;20670;-91
2022/06/22 03:13:39;;;;;;;1.60;1.50;;;;;;;11.81;78.95;97433.84;6163291;28;20242;-90
2022/06/22 03:16:44;;;;;;;1.70;1.60;;;;;;;11.78;79.31;97426.19;6196018;28;20293;-90
2022/06/22 03:20:12;;;;;;;2.10;1.70;;;;;;;11.76;78.95;97425.50;6180242;28;20602;-90
2022/06/22 03:23:35;;;;;;;2.03;1.60;;;;;;;11.77;78.77;97429.81;6157853;28;20330;-90
2022/06/22 03:26:47;;;;;;;2.67;1.63;;;;;;;11.84;78.69;97424.81;6165518;28;20645;-90
2022/06/22 03:29:56;;;;;;;1.90;1.80;;;;;;;11.88;78.80;97428.84;6179792;28;20221;-90
2022/06/22 03:33:05;;;;;;;2.73;1.90;;;;;;;11.89;79.00;97445.53;6164749;28;20239;-90
2022/06/22 03:36:50;;;;;;;1.97;1.77;;;;;;;11.91;78.42;97451.53;6164083;28;20680;-90
2022/06/22 03:39:57;;;;;;;3.57;1.73;;;;;;;11.95;78.64;97451.13;6169261;28;20669;-90
2022/06/22 03:43:11;;;;;;;2.23;1.83;;;;;;;11.97;78.23;97446.56;6179084;28;20273;-90
2022/06/22 03:46:40;;;;;;;1.90;1.67;;;;;;;12.02;78.34;97439.03;6179063;28;20247;-90
2022/06/22 03:49:47;;;;;;;2.13;1.60;;;;;;;12.06;77.99;97429.84;6173588;28;20354;-90
2022/06/22 03:53:21;;;;;;;1.87;1.77;;;;;;;12.13;78.09;97441.53;6179858;28;20705;-90
2022/06/22 03:56:29;;;;;;;1.80;1.60;;;;;;;12.21;78.00;97446.13;6139079;28;20236;-90
2022/06/22 03:59:31;;;;;;;1.80;1.70;;;;;;;12.25;77.97;97455.47;6175945;28;20268;-90
2022/06/22 04:02:34;;;;;;;2.10;1.70;;;;;;;12.30;77.82;97452.41;6202396;28;20663;-90
2022/06/22 04:05:47;;;;;;;3.33;1.83;;;;;;;12.30;77.64;97455.88;6189498;28;20244;-90
2022/06/22 04:08:50;;;;;;;4.50;1.70;;;;;;;12.34;77.97;97454.63;6187339;28;20236;-90
2022/06/22 04:12:09;;;;;;;2.20;1.80;;;;;;;12.39;77.98;97462.97;6205649;28;20236;-90
2022/06/22 04:15:23;;;;;;;2.13;1.70;;;;;;;12.57;77.72;97476.38;6168343;28;20260;-90
2022/06/22 04:18:39;;;;;;;2.27;1.70;;;;;;;12.72;77.49;97477.59;6193178;28;20367;-90
2022/06/22 04:22:08;;;;;;;1.60;1.30;;;;;;;12.86;76.88;97460.44;6207147;28;20236;-91
2022/06/22 04:25:26;;;;;;;2.17;1.83;;;;;;;12.97;77.17;97456.78;6177235;28;20322;-90
2022/06/22 04:28:33;;;;;;;1.73;1.60;;;;;;;13.04;76.80;97455.22;6189971;28;20326;-91
2022/06/22 04:31:39;;;;;;;1.53;1.43;;;;;;;13.17;76.57;97459.28;6207354;28;20259;-90
2022/06/22 04:34:49;;;;;;;1.80;1.70;;;;;;;13.32;76.51;97475.53;6191030;28;20285;-91
2022/06/22 04:37:59;;;;;;;2.13;1.93;;;;;;;13.55;75.96;97454.78;6206613;28;20288;-91
2022/06/22 04:41:19;;;;;;;2.67;1.80;;;;;;;13.72;75.65;97458.47;6191484;28;20229;-90
2022/06/22 04:44:25;;;;;;;1.70;1.60;;;;;;;13.81;75.51;97457.56;6207743;28;20251;-90
2022/06/22 04:47:34;;;;;;;2.60;1.70;;;;;;;13.92;75.28;97457.38;6207282;28;20225;-90
2022/06/22 04:50:39;;;;;;;1.90;1.73;;;;;;;13.95;74.99;97454.41;6190934;28;20704;-90
2022/06/22 04:53:47;;;;;;;4.33;1.60;;;;;;;14.04;75.05;97462.31;6174276;28;20239;-90
2022/06/22 04:56:51;;;;;;;2.23;1.73;;;;;;;14.10;74.99;97465.34;6177171;28;20681;-90
2022/06/22 04:59:55;;;;;;;1.70;1.50;;;;;;;14.19;75.02;97464.44;6193614;28;20351;-91
2022/06/22 05:03:05;;;;;;;2.70;1.57;;;;;;;14.30;74.84;97466.88;6192036;28;20577;-90
2022/06/22 05:06:16;;;;;;;1.60;1.43;;;;;;;14.38;74.18;97464.28;6189859;28;20592;-91
2022/06/22 05:09:34;;;;;;;1.60;1.50;;;;;;;14.72;74.30;97454.66;6190777;28;20223;-90
2022/06/22 05:12:50;;;;;;;1.70;1.60;;;;;;;15.15;73.74;97452.97;6190231;28;20270;-90
2022/06/22 05:15:56;;;;;;;1.80;1.37;;;;;;;15.46;73.17;97448.81;6190130;28;20229;-89
2022/06/22 05:19:00;;;;;;;1.63;1.43;;;;;;;15.64;72.25;97450.56;6210203;28;20236;-90
2022/06/22 05:22:11;;;;;;;3.33;1.50;;;;;;;15.76;72.48;97458.13;6196801;28;20684;-90
2022/06/22 05:25:14;;;;;;;1.70;1.33;;;;;;;15.83;72.34;97447.66;6189903;28;20238;-91
2022/06/22 05:28:33;;;;;;;1.80;1.33;;;;;;;15.98;71.92;97458.50;6189974;28;20236;-90
2022/06/22 05:31:39;;;;;;;2.53;1.33;;;;;;;16.19;71.62;97457.03;6206399;28;20310;-90
2022/06/22 05:34:45;;;;;;;1.83;1.20;;;;;;;16.49;71.28;97439.59;6197730;28;20260;-90
2022/06/22 05:37:51;;;;;;;2.50;1.30;;;;;;;16.76;70.43;97430.50;6192612;28;20231;-90
2022/06/22 05:40:54;;;;;;;1.13;1.03;;;;;;;16.82;70.09;97423.63;6181948;28;20260;-90
2022/06/22 05:43:58;;;;;;;1.37;1.27;;;;;;;16.83;70.15;97422.63;6197607;28;20239;-90
2022/06/22 05:47:02;;;;;;;1.20;1.20;;;;;;;16.80;69.83;97434.47;6189418;28;20224;-91
2022/06/22 05:50:22;;;;;;;2.00;1.80;;;;;;;16.71;70.35;97429.31;6206166;28;20243;-90
2022/06/22 05:53:46;;;;;;;2.10;1.40;;;;;;;16.53;70.64;97429.47;6189117;28;20225;-91
2022/06/22 05:56:53;;;;;;;5.17;1.57;;;;;;;16.46;70.67;97428.47;6205507;28;20324;-90
2022/06/22 06:00:18;;;;;;;3.00;1.20;;;;;;;16.38;71.46;97437.25;6189298;28;20239;-90
2022/06/22 06:03:31;;;;;;;3.63;1.43;;;;;;;16.33;71.62;97442.25;6172791;28;20229;-90
2022/06/22 06:06:40;;;;;;;4.60;1.47;;;;;;;16.34;71.38;97427.13;6188863;28;20228;-90
2022/06/22 06:09:42;;;;;;;2.63;1.57;;;;;;;16.31;72.19;97432.75;6189920;28;20358;-90
2022/06/22 06:13:01;;;;;;;1.67;1.50;;;;;;;16.35;72.06;97442.09;6205417;28;20651;-90
2022/06/22 06:16:09;;;;;;;2.00;1.47;;;;;;;16.63;71.62;97448.81;6164784;28;20764;-90
2022/06/22 06:19:16;;;;;;;1.47;1.20;;;;;;;17.10;70.43;97450.75;6181081;28;20400;-91
2022/06/22 06:22:22;;;;;;;1.40;1.30;;;;;;;17.56;68.89;97447.31;6206490;28;20282;-91
2022/06/22 06:29:10;;;;;;;1.07;1.00;;;;;;;18.36;65.57;97455.94;6189096;28;20232;-90
2022/06/22 06:32:43;;;;;;;1.30;1.20;;;;;;;18.89;63.25;97456.88;6204137;28;20287;-90
2022/06/22 06:35:47;;;;;;;1.47;1.17;;;;;;;19.30;60.48;97456.47;6172188;28;20221;-92
2022/06/22 06:39:03;;;;;;;1.47;1.33;;;;;;;19.37;59.69;97452.03;6188761;28;20228;-91
2022/06/22 06:42:17;;;;;;;1.20;1.10;;;;;;;19.58;59.07;97462.88;6188255;28;20308;-91
2022/06/22 06:45:27;;;;;;;2.20;1.30;;;;;;;19.79;57.41;97452.25;6187291;28;20240;-91
2022/06/22 06:48:34;;;;;;;2.20;1.30;;;;;;;20.00;56.95;97453.34;6187956;28;20228;-92
2022/06/22 06:51:43;;;;;;;1.63;1.20;;;;;;;20.11;55.65;97444.81;6188528;28;20228;-90
2022/06/22 06:54:54;;;;;;;2.40;1.20;;;;;;;20.04;54.13;97436.72;6205773;28;20234;-90
2022/06/22 06:58:11;;;;;;;1.10;0.90;;;;;;;20.12;54.74;97439.28;6204032;28;20232;-91
2022/06/22 07:01:26;;;;;;;1.67;1.00;;;;;;;20.18;53.78;97435.00;6188250;28;20248;-91
2022/06/22 07:04:33;;;;;;;2.80;1.10;;;;;;;20.21;54.45;97431.94;6204857;28;20319;-90
2022/06/22 07:08:04;;;;;;;1.30;1.10;;;;;;;20.35;51.33;97447.19;6204271;28;20237;-90
2022/06/22 07:11:51;;;;;;;1.27;1.10;;;;;;;20.73;50.63;97445.06;6204391;28;20225;-92
2022/06/22 07:14:54;;;;;;;1.97;0.93;;;;;;;20.60;49.53;97439.59;6179443;28;20231;-90
2022/06/22 07:18:02;;;;;;;1.87;1.27;;;;;;;20.76;51.25;97431.28;6204497;28;20715;-90
2022/06/22 07:21:17;;;;;;;0.87;0.80;;;;;;;20.81;48.51;97418.13;6184979;28;20225;-90
2022/06/22 07:24:35;;;;;;;1.50;1.00;;;;;;;20.97;49.15;97417.81;6171528;28;20233;-90
2022/06/22 07:27:46;;;;;;;1.30;0.80;;;;;;;21.30;49.83;97409.19;6187442;28;20435;-91
2022/06/22 07:30:59;;;;;;;1.10;1.00;;;;;;;21.95;49.36;97414.09;6203891;28;20732;-91
2022/06/22 07:34:09;;;;;;;1.30;0.80;;;;;;;22.34;45.81;97407.19;6187748;28;20225;-90
2022/06/22 07:37:22;;;;;;;1.57;1.20;;;;;;;22.95;47.04;97410.59;6186957;28;20229;-90
2022/06/22 07:40:27;;;;;;;1.23;1.00;;;;;;;23.16;44.93;97409.50;6188311;28;20287;-91
2022/06/22 07:43:32;;;;;;;2.00;1.40;;;;;;;23.54;43.47;97401.59;6187104;28;20243;-91
2022/06/22 07:46:45;;;;;;;1.70;1.20;;;;;;;23.12;42.01;97397.50;6204389;28;20239;-91
2022/06/22 07:49:54;;;;;;;1.30;1.07;;;;;;;22.60;42.04;97398.31;6204100;28;20228;-90
2022/06/22 07:53:13;;;;;;;4.80;1.00;;;;;;;22.67;40.84;97383.81;6187914;28;20779;-90
2022/06/22 07:56:26;;;;;;;1.03;0.90;;;;;;;23.23;43.12;97379.91;6196167;28;20654;-90
2022/06/22 07:59:56;;;;;;;1.27;0.90;;;;;;;23.63;38.99;97373.38;6169755;28;20245;-91
2022/06/22 08:03:24;;;;;;;1.00;0.73;;;;;;;24.17;40.00;97374.78;6181439;28;20233;-92
2022/06/22 08:06:33;;;;;;;1.63;1.00;;;;;;;24.54;40.16;97373.94;6191914;28;20225;-88
2022/06/22 08:09:51;;;;;;;3.50;1.00;;;;;;;24.12;36.84;97370.03;6208352;28;20232;-87
2022/06/22 08:13:13;;;;;;;2.07;1.17;;;;;;;24.43;38.74;97369.25;6200615;28;20257;-90
2022/06/22 08:16:23;;;;;;;2.00;1.20;;;;;;;25.01;37.87;97385.22;6155198;28;20776;-89
2022/06/22 08:19:31;;;;;;;2.43;1.00;;;;;;;24.52;37.90;97373.34;6192893;28;20241;-91
2022/06/22 08:22:34;;;;;;;0.80;0.80;;;;;;;24.85;37.93;97372.25;6205252;28;20309;-90
2022/06/22 08:25:36;;;;;;;1.10;0.97;;;;;;;24.92;37.31;97375.75;6195834;28;20711;-90
2022/06/22 08:28:40;;;;;;;1.07;0.80;;;;;;;25.43;37.00;97372.75;6194330;28;20232;-90
2022/06/22 08:31:51;;;;;;;2.03;0.97;;;;;;;25.30;38.41;97365.59;6217886;28;20251;-89
2022/06/22 08:35:31;;;;;;;0.98;0.88;;;;;;;24.98;35.37;97375.69;6195641;28;20311;-90
2022/06/22 08:38:51;;;;;;;1.83;1.10;;;;;;;24.46;35.53;97390.38;6210390;28;20742;-90
2022/06/22 08:42:12;;;;;;;2.15;1.10;;;;;;;24.37;36.26;97397.09;6193289;28;20727;-88
2022/06/22 08:45:20;;;;;;;1.80;1.10;;;;;;;24.59;35.91;97392.16;6183253;28;20226;-91
2022/06/22 08:48:40;;;;;;;6.03;1.17;;;;;;;24.57;35.44;97399.66;6183379;28;20232;-90
2022/06/22 08:52:13;;;;;;;2.05;1.13;;;;;;;24.76;36.02;97392.44;6200956;28;20293;-90
2022/06/22 08:55:43;;;;;;;2.45;1.10;;;;;;;25.20;34.15;97396.88;6190348;28;20236;-90
2022/06/22 08:59:07;;;;;;;2.13;1.05;;;;;;;25.56;36.02;97407.72;6190591;28;20407;-89
2022/06/22 09:02:38;;;;;;;1.92;1.42;;;;;;;26.02;39.19;97406.38;6142952;28;20248;-90
2022/06/22 09:05:59;;;;;;;2.55;1.27;;;;;;;26.27;37.49;97407.09;6173740;28;20599;-90
2022/06/22 09:09:04;;;;;;;1.92;1.20;;;;;;;26.01;35.68;97407.44;6158159;28;20669;-89
2022/06/22 09:12:32;;;;;;;1.80;1.10;;;;;;;25.96;34.30;97408.09;6158854;28;20768;-90
2022/06/22 09:15:58;;;;;;;2.05;0.93;;;;;;;26.14;35.80;97414.56;6158657;28;20229;-90
2022/06/22 09:19:22;;;;;;;1.88;1.00;;;;;;;26.47;35.28;97412.25;6158798;28;20237;-89
2022/06/22 09:22:47;;;;;;;1.23;0.90;;;;;;;27.01;38.68;97413.94;6174177;28;20238;-90
2022/06/22 09:26:29;;;;;;;3.00;1.48;;;;;;;27.41;35.10;97408.66;6173650;28;20312;-89
2022/06/22 09:29:31;;;;;;;5.22;1.50;;;;;;;27.82;33.21;97402.25;6159125;28;20252;-90
2022/06/22 09:32:55;;;;;;;2.58;1.23;;;;;;;27.49;32.50;97404.75;6174301;28;20782;-90
2022/06/22 09:36:25;;;;;;;1.63;1.10;;;;;;;27.22;34.19;97403.59;6173660;28;20308;-90
2022/06/22 09:39:59;;;;;;;1.13;0.93;;;;;;;27.44;32.53;97396.50;6158926;28;20793;-90
2022/06/22 09:43:13;;;;;;;2.75;1.52;;;;;;;27.75;32.57;97398.81;6145483;28;20253;-90
2022/06/22 09:46:50;;;;;;;3.97;1.27;;;;;;;27.45;32.25;97393.53;6133742;28;20253;-90
2022/06/22 09:49:55;;;;;;;2.28;1.40;;;;;;;27.41;35.71;97399.69;6135419;28;20230;-90
2022/06/22 09:53:09;;;;;;;3.38;1.70;;;;;;;28.16;34.57;97394.22;6149805;28;20239;-89
2022/06/22 09:56:27;;;;;;;2.28;1.38;;;;;;;28.91;33.21;97392.13;6158460;28;20750;-91
2022/06/22 09:59:48;;;;;;;4.72;1.38;;;;;;;29.50;32.68;97387.06;6165995;28;20233;-90
2022/06/22 10:03:15;;;;;;;1.92;1.23;;;;;;;29.83;29.10;97385.31;6189288;28;20233;-89
2022/06/22 10:06:37;;;;;;;2.28;1.20;;;;;;;29.17;30.85;97387.09;6189904;28;20233;-90
2022/06/22 10:09:58;;;;;;;1.23;1.13;;;;;;;29.49;29.33;97381.88;6198666;28;20601;-90
2022/06/22 10:13:06;;;;;;;3.63;1.15;;;;;;;29.66;31.71;97391.63;6191322;28;20632;-91
2022/06/22 10:16:24;;;;;;;3.47;1.48;;;;;;;29.25;31.62;97375.78;6205429;28;20322;-90
2022/06/22 10:19:26;;;;;;;2.47;1.23;;;;;;;29.42;31.67;97371.19;6204680;28;20239;-89
2022/06/22 10:22:37;;;;;;;3.70;1.20;;;;;;;29.48;31.76;97374.78;6207845;28;20232;-90
2022/06/22 10:25:48;;;;;;;2.22;1.20;;;;;;;29.68;30.48;97375.06;6164285;28;20766;-90
2022/06/22 10:29:22;;;;;;;2.60;1.25;;;;;;;30.25;29.82;97369.22;6203546;28;20715;-90
2022/06/22 10:32:58;;;;;;;2.83;1.40;;;;;;;31.03;33.68;97379.53;6189380;28;20696;-90
2022/06/22 10:36:36;;;;;;;2.05;1.30;;;;;;;31.27;29.42;97369.09;6195934;28;20346;-90
2022/06/22 10:45:08;;;;;;;1.63;1.08;;;;;;;30.99;27.12;97358.50;6180115;28;20295;-90
2022/06/22 10:47:55;;;;;;;1.10;1.00;;;;;;;30.22;27.92;97365.13;6204467;28;20834;-90
2022/06/22 10:51:19;;;;;;;1.17;0.98;;;;;;;30.16;28.78;97357.16;6187918;28;20229;-90
2022/06/22 10:54:41;;;;;;;6.03;1.60;;;;;;;30.48;28.80;97365.38;6206050;28;20239;-91
2022/06/22 10:57:57;;;;;;;2.13;1.35;;;;;;;30.39;29.84;97368.56;6187917;28;20216;-90
2022/06/22 11:01:24;;;;;;;1.73;1.30;;;;;;;31.22;29.52;97349.97;6190441;28;20255;-89
2022/06/22 11:04:48;;;;;;;1.45;1.17;;;;;;;31.98;26.84;97355.81;6203086;28;20278;-90
2022/06/22 11:08:03;;;;;;;2.90;1.25;;;;;;;31.84;25.47;97355.50;6188523;28;20220;-90
2022/06/22 11:11:08;;;;;;;2.00;1.33;;;;;;;31.89;27.99;97343.78;6206004;28;20787;-89
2022/06/22 11:14:35;;;;;;;2.35;1.20;;;;;;;32.22;26.38;97334.34;6203731;28;20310;-88
2022/06/22 11:17:59;;;;;;;2.65;1.35;;;;;;;32.01;27.88;97336.19;6180307;28;20312;-89
2022/06/22 11:21:39;;;;;;;2.05;1.10;;;;;;;32.15;26.49;97337.31;6187441;28;20244;-90
2022/06/22 11:25:02;;;;;;;2.78;1.20;;;;;;;32.01;27.09;97340.81;6140260;28;20245;-89
2022/06/22 11:32:09;;;;;;;1.30;1.20;;;;;;;30.74;28.59;97320.97;6205424;28;20355;-90
2022/06/22 11:35:42;;;;;;;4.20;1.40;;;;;;;32.07;26.75;97324.19;6199297;28;20606;-89
2022/06/22 11:39:02;;;;;;;2.40;1.10;;;;;;;32.84;29.17;97325.16;6208231;28;20722;-89
2022/06/22 11:42:17;;;;;;;2.25;1.30;;;;;;;33.30;27.09;97320.47;6210981;28;20225;-89
2022/06/22 11:45:51;;;;;;;1.80;1.30;;;;;;;33.54;24.20;97323.41;6195914;28;20443;-90
2022/06/22 11:49:21;;;;;;;1.35;1.08;;;;;;;33.23;26.29;97322.66;6194770;28;20232;-90
2022/06/22 11:52:50;;;;;;;2.28;1.45;;;;;;;33.01;25.70;97319.38;6196393;28;20567;-89
2022/06/22 11:55:57;;;;;;;3.33;1.50;;;;;;;33.04;25.26;97306.00;6190025;28;20467;-90
2022/06/22 11:59:02;;;;;;;1.02;1.02;;;;;;;32.68;26.02;97309.81;6210413;28;20243;-90
2022/06/22 12:02:29;;;;;;;2.42;1.33;;;;;;;32.46;25.89;97310.88;6211404;28;20743;-89
2022/06/22 12:05:54;;;;;;;3.63;1.20;;;;;;;32.23;28.34;97325.91;6211468;28;20285;-87
2022/06/22 12:09:15;;;;;;;3.80;1.85;;;;;;;31.03;29.18;97325.00;6208972;28;20229;-89
2022/06/22 12:12:20;;;;;;;3.33;1.52;;;;;;;31.06;30.91;97318.19;6191524;28;20308;-87
2022/06/22 12:15:40;;;;;;;3.78;1.50;;;;;;;31.02;28.72;97320.63;6208055;28;20232;-89
2022/06/22 12:19:03;;;;;;;1.92;1.30;;;;;;;31.36;29.16;97315.69;6208213;28;20228;-89
2022/06/22 12:22:44;;;;;;;2.50;1.33;;;;;;;31.44;29.36;97325.28;6209163;28;20240;-90
2022/06/22 12:26:04;;;;;;;1.90;1.23;;;;;;;30.98;28.01;97316.78;6191008;28;20241;-90
2022/06/22 12:30:02;;;;;;;2.38;1.10;;;;;;;31.05;30.07;97322.00;6190753;28;20391;-89
2022/06/22 12:33:19;;;;;;;3.53;1.50;;;;;;;31.04;31.21;97312.19;6086499;28;20704;-89
2022/06/22 12:36:27;;;;;;;1.85;1.55;;;;;;;30.88;30.50;97318.63;6207594;28;20696;-90
2022/06/22 12:40:02;;;;;;;4.07;1.33;;;;;;;31.29;34.90;97314.28;6206358;28;20239;-90
2022/06/22 12:43:41;;;;;;;1.98;1.20;;;;;;;31.28;30.17;97323.53;6174235;28;20236;-89
2022/06/22 12:47:22;;;;;;;2.75;1.50;;;;;;;31.57;30.37;97330.25;6206658;28;20363;-89
2022/06/22 12:50:46;;;;;;;1.60;1.20;;;;;;;32.11;32.50;97302.63;6191190;28;20233;-89
2022/06/22 12:54:06;;;;;;;1.42;1.10;;;;;;;32.33;32.00;97303.25;6206649;28;20247;-89
2022/06/22 12:57:13;;;;;;;1.88;1.30;;;;;;;32.76;30.06;97301.91;6174040;28;20663;-89
2022/06/22 13:00:18;;;;;;;1.52;1.05;;;;;;;32.97;32.80;97317.19;6206232;28;20232;-89
2022/06/22 13:03:24;;;;;;;2.95;1.50;;;;;;;32.20;29.37;97309.22;6206483;28;20299;-90
2022/06/22 13:06:29;;;;;;;1.30;1.20;;;;;;;31.54;32.00;97300.78;6206788;28;20319;-90
2022/06/22 13:09:32;;;;;;;1.40;1.30;;;;;;;31.51;34.63;97293.13;6190195;28;20693;-89
2022/06/22 13:12:46;;;;;;;1.20;1.02;;;;;;;31.02;34.49;97287.09;6190393;28;20243;-89
2022/06/22 13:16:15;;;;;;;1.25;1.15;;;;;;;30.88;35.72;97284.00;6189415;28;20670;-90
2022/06/22 13:19:50;;;;;;;1.30;1.20;;;;;;;30.71;36.30;97283.34;6205494;28;20250;-89
2022/06/22 13:23:08;;;;;;;2.45;1.40;;;;;;;30.64;35.28;97283.56;6203168;28;21040;-91
2022/06/22 13:26:21;;;;;;;1.90;1.50;;;;;;;30.40;36.46;97282.25;6189953;28;20299;-88
2022/06/22 13:30:02;;;;;;;1.50;1.20;;;;;;;29.83;37.03;97281.94;6186670;28;20240;-88
2022/06/22 13:33:09;;;;;;;4.55;1.75;;;;;;;29.97;37.83;97284.00;6148349;28;20736;-88
2022/06/22 13:36:43;;;;;;;1.40;1.30;;;;;;;29.75;38.45;97275.03;6149650;28;20206;-89
2022/06/22 13:39:57;;;;;;;2.90;1.35;;;;;;;30.02;38.69;97280.53;6154690;28;20219;-90
2022/06/22 13:42:59;;;;;;;1.75;1.33;;;;;;;30.16;38.19;97272.75;6154909;28;20548;-88
2022/06/22 13:46:28;;;;;;;2.47;1.50;;;;;;;30.59;37.59;97271.81;6154545;28;20536;-89
2022/06/22 13:49:38;;;;;;;2.97;1.30;;;;;;;31.01;36.92;97271.81;6145722;28;20225;-88
2022/06/22 13:52:51;;;;;;;1.52;1.42;;;;;;;31.23;36.76;97258.06;6115849;28;20231;-87
2022/06/22 13:56:24;;;;;;;3.30;1.42;;;;;;;31.27;34.52;97254.53;6132229;28;20241;-88
2022/06/22 13:59:44;;;;;;;2.45;1.42;;;;;;;32.01;35.24;97258.91;6144868;28;20366;-87
2022/06/22 14:03:07;;;;;;;2.28;1.20;;;;;;;32.94;34.46;97256.78;6131209;28;20447;-89
2022/06/22 14:06:09;;;;;;;2.45;1.35;;;;;;;33.09;33.13;97240.34;6142107;28;20696;-89
2022/06/22 14:09:19;;;;;;;2.72;1.58;;;;;;;31.70;30.43;97241.66;6183023;28;20216;-88
2022/06/22 14:12:28;;;;;;;5.47;1.67;;;;;;;31.26;30.71;97232.97;6166432;28;20241;-89
2022/06/22 14:15:41;;;;;;;3.83;1.25;;;;;;;31.05;32.79;97229.31;6188447;28;20710;-89
2022/06/22 14:19:00;;;;;;;2.15;1.58;;;;;;;30.65;33.51;97224.44;6173091;28;20708;-88
2022/06/22 14:22:06;;;;;;;2.63;1.40;;;;;;;30.81;35.04;97224.28;6199654;28;20236;-89
2022/06/22 14:25:36;;;;;;;3.72;1.38;;;;;;;31.74;35.81;97227.19;6184325;28;20976;-88
2022/06/22 14:28:55;;;;;;;4.13;1.63;;;;;;;31.41;35.05;97222.97;6189802;28;20323;-87
2022/06/22 14:32:12;;;;;;;4.43;1.30;;;;;;;30.52;38.54;97213.97;6171643;28;20864;-88
2022/06/22 14:35:33;;;;;;;2.67;1.35;;;;;;;29.76;39.65;97213.28;6186427;28;20233;-88
2022/06/22 14:38:53;;;;;;;1.77;1.40;;;;;;;29.26;40.85;97211.59;6167380;28;20239;-88
2022/06/22 14:42:05;;;;;;;1.98;1.52;;;;;;;28.89;41.64;97211.41;6171594;28;20795;-88
2022/06/22 14:45:10;;;;;;;2.13;1.50;;;;;;;28.67;42.33;97213.22;6187534;28;20857;-88
2022/06/22 14:48:36;;;;;;;4.10;1.85;;;;;;;28.38;42.89;97205.19;6189043;28;20232;-88
2022/06/22 14:51:53;;;;;;;3.95;1.48;;;;;;;28.00;43.79;97196.94;6172259;28;20725;-88
2022/06/22 14:55:13;;;;;;;4.35;1.60;;;;;;;27.94;44.14;97182.47;6187270;28;20244;-86
2022/06/22 14:58:41;;;;;;;2.97;1.50;;;;;;;27.80;44.15;97181.13;6183890;28;20936;-88
2022/06/22 15:39:02;;;;;;;2.47;1.60;;;;;;;25.71;50.47;97150.56;6205639;28;20263;-86
2022/06/22 15:42:07;;;;;;;3.60;1.77;;;;;;;25.74;50.55;97155.53;6187509;28;20232;-86
2022/06/22 15:45:37;;;;;;;3.25;1.63;;;;;;;25.70;51.02;97163.25;6190536;28;20236;-87
2022/06/22 15:49:03;;;;;;;1.70;1.60;;;;;;;25.62;50.77;97170.88;6203626;28;20264;-86
2022/06/22 15:52:13;;;;;;;2.33;2.05;;;;;;;25.55;51.35;97160.16;6205570;28;20345;-86
2022/06/22 15:55:45;;;;;;;1.88;1.73;;;;;;;25.51;51.78;97150.03;6205496;28;20689;-86
2022/06/22 15:59:08;;;;;;;1.88;1.77;;;;;;;25.37;52.13;97155.59;6186714;28;20624;-86
2022/06/22 16:02:20;;;;;;;2.00;1.80;;;;;;;25.25;51.99;97151.22;6187110;28;20711;-86
2022/06/22 16:05:57;;;;;;;1.90;1.80;;;;;;;25.14;52.41;97160.94;6187299;28;20572;-86
2022/06/22 16:09:15;;;;;;;2.33;1.92;;;;;;;25.04;52.71;97154.41;6204656;28;20253;-86
2022/06/22 16:16:15;;;;;;;3.90;2.22;;;;;;;24.87;53.55;97159.56;6203854;28;20375;-85
2022/06/22 16:19:20;;;;;;;3.40;2.00;;;;;;;24.83;54.26;97147.59;6205061;28;20259;-86
2022/06/22 16:22:38;;;;;;;3.13;2.10;;;;;;;24.86;54.22;97142.53;6193528;28;20230;-87